createdAt,value
2019-02-19T00:00:33.703Z,21.50
2019-02-19T00:03:02.243Z,21.50
2019-02-19T00:05:30.526Z,21.50
2019-02-19T00:07:58.826Z,21.50
2019-02-19T00:10:27.135Z,21.50
2019-02-19T00:12:55.490Z,21.50
2019-02-19T00:15:25.118Z,21.40
2019-02-19T00:17:53.433Z,21.40
2019-02-19T00:20:21.963Z,21.40
2019-02-19T00:22:50.272Z,21.40
2019-02-19T00:25:18.829Z,21.40
2019-02-19T00:27:47.149Z,21.40
2019-02-19T00:30:15.546Z,21.40
2019-02-19T00:32:44.186Z,21.40
2019-02-19T00:35:12.755Z,21.40
2019-02-19T00:37:41.337Z,21.40
2019-02-19T00:40:09.677Z,21.40
2019-02-19T00:42:37.968Z,21.40
2019-02-19T00:45:06.959Z,21.30
2019-02-19T00:47:35.285Z,21.40
2019-02-19T00:50:04.365Z,21.30
2019-02-19T00:52:32.650Z,21.30
2019-02-19T00:55:01.219Z,21.30
2019-02-19T00:57:31.330Z,21.30
2019-02-19T00:59:59.634Z,21.30
2019-02-19T01:02:27.930Z,21.30
2019-02-19T01:04:56.574Z,21.30
2019-02-19T01:07:25.162Z,21.30
2019-02-19T01:09:53.466Z,21.30
2019-02-19T01:12:21.765Z,21.30
2019-02-19T01:14:50.056Z,21.30
2019-02-19T01:17:18.395Z,21.30
2019-02-19T01:19:46.957Z,21.30
2019-02-19T01:22:15.257Z,21.20
2019-02-19T01:24:43.807Z,21.20
2019-02-19T01:27:12.114Z,21.20
2019-02-19T01:29:40.401Z,21.20
2019-02-19T01:32:09.067Z,21.20
2019-02-19T01:34:37.357Z,21.20
2019-02-19T01:37:05.646Z,21.20
2019-02-19T01:39:33.957Z,21.20
2019-02-19T01:42:02.316Z,21.20
2019-02-19T01:44:30.946Z,21.10
2019-02-19T01:46:59.546Z,21.10
2019-02-19T01:49:27.825Z,21.10
2019-02-19T01:51:56.398Z,21.10
2019-02-19T01:54:25.092Z,21.10
2019-02-19T01:56:53.780Z,21.10
2019-02-19T01:59:22.455Z,21.10
2019-02-19T02:01:50.877Z,21.10
2019-02-19T02:04:19.171Z,21.00
2019-02-19T02:06:47.805Z,21.10
2019-02-19T02:09:16.380Z,21.00
2019-02-19T02:11:44.666Z,21.00
2019-02-19T02:14:13.342Z,21.00
2019-02-19T02:16:41.929Z,21.00
2019-02-19T02:19:10.225Z,21.00
2019-02-19T02:21:38.787Z,21.00
2019-02-19T02:24:07.370Z,21.00
2019-02-19T02:26:35.962Z,21.00
2019-02-19T02:29:04.264Z,21.00
2019-02-19T02:31:32.551Z,21.00
2019-02-19T02:34:01.231Z,21.00
2019-02-19T02:36:29.537Z,21.00
2019-02-19T02:38:58.156Z,20.90
2019-02-19T02:41:26.740Z,20.90
2019-02-19T02:43:55.023Z,20.90
2019-02-19T02:46:23.343Z,21.00
2019-02-19T02:48:51.978Z,21.00
2019-02-19T02:51:20.271Z,21.00
2019-02-19T02:53:48.836Z,21.00
2019-02-19T02:56:17.118Z,21.00
2019-02-19T02:58:45.697Z,21.00
2019-02-19T03:01:13.984Z,20.90
2019-02-19T03:03:42.530Z,21.00
2019-02-19T03:06:12.452Z,21.00
2019-02-19T03:08:40.767Z,20.90
2019-02-19T03:11:10.893Z,20.90
2019-02-19T03:13:39.294Z,20.90
2019-02-19T03:16:07.590Z,20.90
2019-02-19T03:18:36.212Z,20.90
2019-02-19T03:21:04.501Z,20.90
2019-02-19T03:23:32.788Z,20.90
2019-02-19T03:26:01.087Z,20.90
2019-02-19T03:28:29.386Z,20.90
2019-02-19T03:30:57.720Z,20.90
2019-02-19T03:33:26.098Z,20.90
2019-02-19T03:35:54.674Z,20.90
2019-02-19T03:38:22.957Z,20.90
2019-02-19T03:40:51.267Z,20.90
2019-02-19T03:43:20.511Z,20.80
2019-02-19T03:45:49.060Z,20.90
2019-02-19T03:48:17.341Z,20.80
2019-02-19T03:50:50.662Z,20.80
2019-02-19T03:53:18.957Z,20.80
2019-02-19T03:55:47.626Z,20.80
2019-02-19T03:58:15.904Z,20.80
2019-02-19T04:00:44.219Z,20.80
2019-02-19T04:03:12.537Z,20.80
2019-02-19T04:05:40.881Z,20.80
2019-02-19T04:08:09.165Z,20.80
2019-02-19T04:10:37.471Z,20.80
2019-02-19T04:13:05.747Z,20.80
2019-02-19T04:15:34.149Z,20.80
2019-02-19T04:18:02.838Z,20.80
2019-02-19T04:20:31.118Z,20.80
2019-02-19T04:22:59.693Z,20.70
2019-02-19T04:25:28.018Z,20.70
2019-02-19T04:27:56.561Z,20.70
2019-02-19T04:30:25.142Z,20.70
2019-02-19T04:32:53.438Z,20.70
2019-02-19T04:35:21.747Z,20.70
2019-02-19T04:37:50.483Z,20.70
2019-02-19T04:40:19.060Z,20.70
2019-02-19T04:42:47.357Z,20.70
2019-02-19T04:45:15.740Z,20.70
2019-02-19T04:47:44.303Z,20.70
2019-02-19T04:50:12.587Z,20.70
2019-02-19T04:52:40.878Z,20.70
2019-02-19T04:55:09.162Z,20.70
2019-02-19T04:57:37.470Z,20.60
2019-02-19T05:00:09.434Z,20.60
2019-02-19T05:02:37.744Z,20.60
2019-02-19T05:05:06.497Z,20.60
2019-02-19T05:07:35.037Z,20.60
2019-02-19T05:10:04.159Z,20.60
2019-02-19T05:12:32.458Z,20.60
2019-02-19T05:15:00.735Z,20.60
2019-02-19T05:17:29.351Z,20.60
2019-02-19T05:19:57.938Z,20.70
2019-02-19T05:22:26.218Z,20.60
2019-02-19T05:24:54.529Z,20.60
2019-02-19T05:27:23.178Z,20.60
2019-02-19T05:29:51.770Z,20.60
2019-02-19T05:32:20.077Z,20.70
2019-02-19T05:34:48.385Z,20.60
2019-02-19T05:37:16.998Z,20.60
2019-02-19T05:39:45.577Z,20.60
2019-02-19T05:42:13.882Z,20.60
2019-02-19T05:44:42.163Z,20.60
2019-02-19T05:47:10.443Z,20.60
2019-02-19T05:49:38.752Z,20.60
2019-02-19T05:52:07.055Z,20.60
2019-02-19T05:54:35.334Z,20.60
2019-02-19T05:57:03.932Z,20.60
2019-02-19T05:59:32.638Z,20.60
2019-02-19T06:02:01.009Z,20.60
2019-02-19T06:04:29.327Z,20.60
2019-02-19T06:06:57.679Z,20.60
2019-02-19T06:09:25.975Z,20.50
2019-02-19T06:11:54.283Z,20.50
2019-02-19T06:14:22.826Z,20.50
2019-02-19T06:16:58.353Z,20.50
2019-02-19T06:19:21.149Z,20.50
2019-02-19T06:21:49.425Z,20.50
2019-02-19T06:24:17.994Z,20.50
2019-02-19T06:26:46.624Z,20.50
2019-02-19T06:29:15.211Z,20.50
2019-02-19T06:31:43.522Z,20.50
2019-02-19T06:34:11.826Z,20.50
2019-02-19T06:36:40.454Z,20.50
2019-02-19T06:39:08.757Z,20.50
2019-02-19T06:41:37.457Z,20.40
2019-02-19T06:44:05.828Z,20.40
2019-02-19T06:46:34.111Z,20.40
2019-02-19T06:49:02.754Z,20.40
2019-02-19T06:51:31.057Z,20.40
2019-02-19T06:53:59.714Z,20.40
2019-02-19T06:56:28.304Z,20.40
2019-02-19T06:58:56.886Z,20.40
2019-02-19T07:01:42.066Z,20.40
2019-02-19T07:04:15.250Z,20.40
2019-02-19T07:06:43.547Z,20.40
2019-02-19T07:09:11.835Z,20.40
2019-02-19T07:11:40.147Z,20.40
2019-02-19T07:14:08.425Z,20.40
2019-02-19T07:16:37.046Z,20.40
2019-02-19T07:19:05.329Z,20.40
2019-02-19T07:21:33.602Z,20.40
2019-02-19T07:24:04.405Z,20.40
2019-02-19T07:26:31.921Z,20.40
2019-02-19T07:29:00.315Z,20.50
2019-02-19T07:31:28.956Z,20.50
2019-02-19T07:33:57.240Z,20.50
2019-02-19T07:36:25.816Z,20.50
2019-02-19T07:38:54.401Z,20.50
2019-02-19T07:41:22.989Z,20.50
2019-02-19T07:43:51.872Z,20.50
2019-02-19T07:46:20.165Z,20.50
2019-02-19T07:48:48.478Z,20.50
2019-02-19T07:51:16.764Z,20.60
2019-02-19T07:53:45.401Z,20.60
2019-02-19T07:56:13.908Z,20.60
2019-02-19T07:58:42.586Z,20.60
2019-02-19T08:01:11.251Z,20.60
2019-02-19T08:03:39.932Z,20.70
2019-02-19T08:06:08.545Z,20.80
2019-02-19T08:08:37.203Z,20.90
2019-02-19T08:11:05.896Z,21.10
2019-02-19T08:13:34.215Z,21.10
2019-02-19T08:16:02.521Z,21.20
2019-02-19T08:18:30.818Z,21.30
2019-02-19T08:20:59.108Z,21.40
2019-02-19T08:23:29.883Z,21.50
2019-02-19T08:26:00.492Z,21.50
2019-02-19T08:28:29.143Z,21.60
2019-02-19T08:30:57.431Z,21.60
2019-02-19T08:33:25.746Z,21.70
2019-02-19T08:35:54.489Z,21.60
2019-02-19T08:38:23.084Z,21.60
2019-02-19T08:40:51.519Z,21.50
2019-02-19T08:43:20.145Z,21.50
2019-02-19T08:45:48.720Z,21.50
2019-02-19T08:48:17.028Z,21.40
2019-02-19T08:50:45.317Z,21.40
2019-02-19T08:53:13.975Z,21.40
2019-02-19T08:55:42.279Z,21.40
2019-02-19T08:58:10.574Z,21.40
2019-02-19T09:00:38.887Z,21.40
2019-02-19T09:03:07.590Z,21.40
2019-02-19T09:05:37.587Z,21.30
2019-02-19T09:08:06.179Z,21.30
2019-02-19T09:10:34.767Z,21.30
2019-02-19T09:13:03.362Z,21.30
2019-02-19T09:15:31.846Z,21.30
2019-02-19T09:18:00.150Z,21.40
2019-02-19T09:20:28.484Z,21.50
2019-02-19T09:22:56.809Z,21.60
2019-02-19T09:25:25.107Z,21.80
2019-02-19T09:27:53.726Z,21.90
2019-02-19T09:30:22.311Z,22.00
2019-02-19T09:32:50.626Z,22.00
2019-02-19T09:35:18.966Z,22.00
2019-02-19T09:37:47.333Z,22.00
2019-02-19T09:40:15.615Z,21.90
2019-02-19T09:42:43.926Z,21.90
2019-02-19T09:45:12.211Z,21.90
2019-02-19T09:47:40.784Z,21.90
2019-02-19T09:50:10.572Z,21.90
2019-02-19T09:52:39.161Z,21.90
2019-02-19T09:55:07.875Z,21.90
2019-02-19T09:57:36.278Z,21.90
2019-02-19T10:00:08.280Z,21.90
2019-02-19T10:02:36.874Z,21.80
2019-02-19T10:05:07.223Z,21.90
2019-02-19T10:07:35.791Z,21.90
2019-02-19T10:10:05.414Z,21.90
2019-02-19T10:12:33.966Z,21.90
2019-02-19T10:15:02.346Z,21.90
2019-02-19T10:17:30.643Z,21.90
2019-02-19T10:19:58.945Z,21.90
2019-02-19T10:22:27.265Z,22.00
2019-02-19T10:24:56.799Z,22.00
2019-02-19T10:27:25.528Z,22.00
2019-02-19T10:29:56.645Z,21.90
2019-02-19T10:32:24.944Z,21.90
2019-02-19T10:34:53.566Z,22.00
2019-02-19T10:37:21.934Z,22.00
2019-02-19T10:39:50.549Z,22.00
2019-02-19T10:42:19.141Z,22.00
2019-02-19T10:44:47.450Z,21.90
2019-02-19T10:47:15.814Z,22.00
2019-02-19T10:49:44.099Z,22.00
2019-02-19T10:52:12.399Z,22.00
2019-02-19T10:54:40.699Z,22.10
2019-02-19T10:57:08.983Z,22.10
2019-02-19T10:59:37.383Z,22.10
2019-02-19T11:02:05.690Z,22.20
2019-02-19T11:04:34.235Z,22.20
2019-02-19T11:07:02.823Z,22.30
2019-02-19T11:09:31.414Z,22.30
2019-02-19T11:11:59.714Z,22.20
2019-02-19T11:14:28.266Z,22.30
2019-02-19T11:16:56.568Z,22.30
2019-02-19T11:19:24.855Z,22.30
2019-02-19T11:21:53.508Z,22.30
2019-02-19T11:24:21.818Z,22.40
2019-02-19T11:26:50.122Z,22.40
2019-02-19T11:29:18.407Z,22.40
2019-02-19T11:31:46.706Z,22.40
2019-02-19T11:34:15.295Z,22.40
2019-02-19T11:36:43.589Z,22.40
2019-02-19T11:39:12.157Z,22.50
2019-02-19T11:41:40.467Z,22.40
2019-02-19T11:44:08.848Z,22.40
2019-02-19T11:46:37.150Z,22.40
2019-02-19T11:49:05.636Z,22.40
2019-02-19T11:51:33.971Z,22.50
2019-02-19T11:54:02.366Z,22.40
2019-02-19T11:56:30.859Z,22.40
2019-02-19T11:58:59.499Z,22.40
2019-02-19T12:01:28.081Z,22.50
2019-02-19T12:03:56.378Z,22.40
2019-02-19T12:06:24.677Z,22.40
2019-02-19T12:08:53.320Z,22.50
2019-02-19T12:11:21.657Z,22.50
2019-02-19T12:13:49.958Z,22.40
2019-02-19T12:16:18.765Z,22.50
2019-02-19T12:18:47.043Z,22.40
2019-02-19T12:21:15.363Z,22.50
2019-02-19T12:23:43.656Z,22.40
2019-02-19T12:26:11.950Z,22.40
2019-02-19T12:28:40.582Z,22.40
2019-02-19T12:31:09.249Z,22.40
2019-02-19T12:33:37.535Z,22.40
2019-02-19T12:36:05.850Z,22.40
2019-02-19T12:38:34.194Z,22.40
2019-02-19T12:41:02.758Z,22.40
2019-02-19T12:43:31.079Z,22.40
2019-02-19T12:46:01.016Z,22.40
2019-02-19T12:48:29.635Z,22.40
2019-02-19T12:50:58.219Z,22.40
2019-02-19T12:53:26.906Z,22.40
2019-02-19T12:55:57.925Z,22.40
2019-02-19T12:58:27.520Z,22.40
2019-02-19T13:00:55.927Z,22.40
2019-02-19T13:03:24.514Z,22.40
2019-02-19T13:05:53.102Z,22.40
2019-02-19T13:08:21.391Z,22.40
2019-02-19T13:10:49.692Z,22.40
2019-02-19T13:13:18.238Z,22.40
2019-02-19T13:15:46.542Z,22.40
2019-02-19T13:18:14.829Z,22.40
2019-02-19T13:20:43.478Z,22.40
2019-02-19T13:23:11.783Z,22.40
2019-02-19T13:25:40.068Z,22.50
2019-02-19T13:28:08.390Z,22.50
2019-02-19T13:30:36.997Z,22.50
2019-02-19T13:33:05.571Z,22.50
2019-02-19T13:35:33.875Z,22.50
2019-02-19T13:38:02.438Z,22.50
2019-02-19T13:40:30.737Z,22.50
2019-02-19T13:42:59.036Z,22.50
2019-02-19T13:45:27.672Z,22.50
2019-02-19T13:47:56.359Z,22.50
2019-02-19T13:50:26.300Z,22.50
2019-02-19T13:53:11.625Z,22.50
2019-02-19T13:55:41.881Z,22.50
2019-02-19T13:58:10.468Z,22.50
2019-02-19T14:00:40.697Z,22.50
2019-02-19T14:03:09.010Z,22.40
2019-02-19T14:05:37.651Z,22.30
2019-02-19T14:08:13.981Z,22.30
2019-02-19T14:10:36.349Z,22.30
2019-02-19T14:13:06.496Z,22.30
2019-02-19T14:15:52.769Z,22.30
2019-02-19T14:18:32.073Z,22.30
2019-02-19T14:21:11.130Z,22.30
2019-02-19T14:23:43.527Z,22.30
2019-02-19T14:26:39.657Z,22.30
2019-02-19T14:29:26.342Z,22.30
2019-02-19T14:31:58.932Z,22.30
2019-02-19T14:34:28.893Z,22.30
2019-02-19T14:37:10.535Z,22.30
2019-02-19T14:39:52.648Z,22.20
2019-02-19T14:42:28.512Z,22.20
2019-02-19T14:45:13.740Z,22.20
2019-02-19T14:47:46.949Z,22.20
2019-02-19T14:50:23.047Z,22.20
2019-02-19T14:52:56.531Z,22.20
2019-02-19T14:55:43.222Z,22.10
2019-02-19T14:58:20.006Z,22.10
2019-02-19T15:01:08.752Z,22.10
2019-02-19T15:03:50.799Z,22.10
2019-02-19T15:06:36.232Z,22.10
2019-02-19T15:09:26.024Z,22.10
2019-02-19T15:11:58.853Z,22.00
2019-02-19T15:14:29.121Z,22.00
2019-02-19T15:17:13.761Z,22.00
2019-02-19T15:19:46.759Z,22.00
2019-02-19T15:22:16.979Z,22.00
2019-02-19T15:25:01.897Z,21.90
2019-02-19T15:27:38.117Z,22.00
2019-02-19T15:30:13.147Z,21.90
2019-02-19T15:33:01.381Z,21.90
2019-02-19T15:35:49.134Z,21.90
2019-02-19T15:38:19.452Z,21.90
2019-02-19T15:41:05.951Z,21.90
2019-02-19T15:43:39.043Z,21.90
2019-02-19T15:46:25.515Z,21.80
2019-02-19T15:49:04.987Z,21.80
2019-02-19T15:51:35.208Z,21.80
2019-02-19T15:54:21.707Z,21.80
2019-02-19T15:57:00.283Z,21.80
2019-02-19T15:59:36.186Z,21.70
2019-02-19T16:02:09.271Z,21.70
2019-02-19T16:04:45.023Z,21.70
2019-02-19T16:07:30.424Z,21.70
2019-02-19T16:10:03.288Z,21.70
2019-02-19T16:12:36.040Z,21.70
2019-02-19T16:15:11.208Z,21.70
2019-02-19T16:17:56.125Z,21.70
2019-02-19T16:20:26.398Z,21.70
2019-02-19T16:23:04.984Z,21.70
2019-02-19T16:25:35.036Z,21.60
2019-02-19T16:28:07.820Z,21.60
2019-02-19T16:30:49.887Z,21.60
2019-02-19T16:33:19.832Z,21.60
2019-02-19T16:35:55.643Z,21.60
2019-02-19T16:38:31.750Z,21.60
2019-02-19T16:41:14.256Z,21.60
2019-02-19T16:43:56.180Z,21.60
2019-02-19T16:46:44.609Z,21.60
2019-02-19T16:49:20.417Z,21.70
2019-02-19T16:51:50.338Z,21.80
2019-02-19T16:54:20.605Z,21.90
2019-02-19T16:57:02.907Z,21.90
2019-02-19T16:59:33.125Z,21.90
2019-02-19T17:02:05.734Z,21.90
2019-02-19T17:04:36.127Z,21.90
2019-02-19T17:07:06.072Z,21.90
2019-02-19T17:09:36.270Z,21.90
2019-02-19T17:12:18.102Z,21.90
2019-02-19T17:14:54.019Z,21.90
2019-02-19T17:17:30.188Z,21.90
2019-02-19T17:20:26.553Z,21.90
2019-02-19T17:23:05.838Z,21.90
2019-02-19T17:25:35.760Z,21.80
2019-02-19T17:28:05.799Z,21.90
2019-02-19T17:30:35.796Z,21.80
2019-02-19T17:33:24.267Z,21.80
2019-02-19T17:36:03.702Z,21.80
2019-02-19T17:38:42.659Z,21.80
2019-02-19T17:41:12.583Z,21.70
2019-02-19T17:43:42.855Z,21.80
2019-02-19T17:46:13.046Z,21.80
2019-02-19T17:48:42.982Z,21.80
2019-02-19T17:51:13.163Z,21.80
2019-02-19T17:53:58.320Z,21.80
2019-02-19T17:56:28.301Z,21.70
2019-02-19T17:59:00.887Z,21.80
2019-02-19T18:01:42.797Z,21.70
2019-02-19T18:04:18.625Z,21.70
2019-02-19T18:07:00.330Z,21.80
2019-02-19T18:09:36.514Z,21.80
2019-02-19T18:12:09.318Z,21.90
2019-02-19T18:14:57.831Z,21.90
2019-02-19T18:17:27.784Z,21.90
2019-02-19T18:19:56.070Z,21.90
2019-02-19T18:22:24.376Z,21.90
2019-02-19T18:24:52.959Z,21.90
2019-02-19T18:27:21.552Z,21.90
2019-02-19T18:29:49.857Z,21.90
2019-02-19T18:32:18.184Z,21.90
2019-02-19T18:34:46.546Z,21.90
2019-02-19T18:37:14.907Z,21.90
2019-02-19T18:39:43.475Z,22.00
2019-02-19T18:42:11.787Z,22.10
2019-02-19T18:44:40.425Z,22.10
2019-02-19T18:47:08.828Z,22.20
2019-02-19T18:49:37.842Z,22.20
2019-02-19T18:52:06.473Z,22.20
2019-02-19T18:54:34.778Z,22.20
2019-02-19T18:57:03.116Z,22.20
2019-02-19T18:59:31.737Z,22.10
2019-02-19T19:02:00.046Z,22.00
2019-02-19T19:04:28.419Z,22.10
2019-02-19T19:06:57.066Z,22.00
2019-02-19T19:09:27.270Z,22.00
2019-02-19T19:11:56.169Z,22.00
2019-02-19T19:14:24.742Z,21.90
2019-02-19T19:16:53.034Z,21.90
2019-02-19T19:19:21.661Z,21.90
2019-02-19T19:21:50.001Z,21.90
2019-02-19T19:24:18.583Z,21.90
2019-02-19T19:26:46.951Z,21.90
2019-02-19T19:29:15.549Z,21.90
2019-02-19T19:31:44.176Z,21.90
2019-02-19T19:34:12.969Z,21.90
2019-02-19T19:36:41.413Z,22.00
2019-02-19T19:39:10.093Z,22.00
2019-02-19T19:41:38.767Z,22.10
2019-02-19T19:44:07.183Z,22.20
2019-02-19T19:46:35.561Z,22.30
2019-02-19T19:49:04.210Z,22.30
2019-02-19T19:51:32.789Z,22.40
2019-02-19T19:54:01.373Z,22.40
2019-02-19T19:56:30.165Z,22.50
2019-02-19T19:58:58.740Z,22.50
2019-02-19T20:01:27.058Z,22.50
2019-02-19T20:03:55.704Z,22.40
2019-02-19T20:06:24.096Z,22.40
2019-02-19T20:08:52.767Z,22.30
2019-02-19T20:11:21.374Z,22.30
2019-02-19T20:13:49.678Z,22.20
2019-02-19T20:16:18.323Z,22.10
2019-02-19T20:18:47.012Z,22.10
2019-02-19T20:21:15.308Z,22.10
2019-02-19T20:23:43.878Z,22.20
2019-02-19T20:26:12.547Z,22.20
2019-02-19T20:28:40.872Z,22.30
2019-02-19T20:31:09.164Z,22.30
2019-02-19T20:33:37.810Z,22.40
2019-02-19T20:36:06.184Z,22.40
2019-02-19T20:38:34.800Z,22.50
2019-02-19T20:41:03.585Z,22.50
2019-02-19T20:43:32.282Z,22.60
2019-02-19T20:46:00.952Z,22.50
2019-02-19T20:48:29.617Z,22.50
2019-02-19T20:50:58.179Z,22.40
2019-02-19T20:53:26.581Z,22.40
2019-02-19T20:55:55.017Z,22.30
2019-02-19T20:58:23.383Z,22.30
2019-02-19T21:00:53.292Z,22.20
2019-02-19T21:03:21.950Z,22.20
2019-02-19T21:05:50.255Z,22.20
2019-02-19T21:08:18.588Z,22.20
2019-02-19T21:10:47.283Z,22.30
2019-02-19T21:13:15.849Z,22.40
2019-02-19T21:15:44.328Z,22.40
2019-02-19T21:18:13.691Z,22.50
2019-02-19T21:20:42.532Z,22.60
2019-02-19T21:23:10.915Z,22.60
2019-02-19T21:25:39.241Z,22.60
2019-02-19T21:28:07.960Z,22.60
2019-02-19T21:30:36.417Z,22.70
2019-02-19T21:33:04.760Z,22.70
2019-02-19T21:35:33.172Z,22.60
2019-02-19T21:38:01.556Z,22.60
2019-02-19T21:40:29.913Z,22.50
2019-02-19T21:42:58.559Z,22.40
2019-02-19T21:45:27.247Z,22.40
2019-02-19T21:47:55.561Z,22.40
2019-02-19T21:50:24.199Z,22.30
2019-02-19T21:52:52.917Z,22.20
2019-02-19T21:55:21.260Z,22.20
2019-02-19T21:57:52.312Z,22.20
2019-02-19T22:00:21.973Z,22.30
2019-02-19T22:02:50.360Z,22.30
2019-02-19T22:05:18.975Z,22.30
2019-02-19T22:07:47.558Z,22.30
2019-02-19T22:10:16.157Z,22.30
2019-02-19T22:12:44.726Z,22.30
2019-02-19T22:15:16.400Z,22.40
2019-02-19T22:17:44.754Z,22.40
2019-02-19T22:20:17.002Z,22.40
2019-02-19T22:22:45.317Z,22.40
2019-02-19T22:25:13.682Z,22.40
2019-02-19T22:27:42.271Z,22.40
2019-02-19T22:30:10.569Z,22.30
2019-02-19T22:32:38.863Z,22.30
2019-02-19T22:35:07.603Z,22.30
2019-02-19T22:37:36.203Z,22.30
2019-02-19T22:40:06.855Z,22.40
2019-02-19T22:42:35.223Z,22.40
2019-02-19T22:45:04.412Z,22.40
2019-02-19T22:47:32.767Z,22.40
2019-02-19T22:50:01.379Z,22.40
2019-02-19T22:52:29.679Z,22.30
2019-02-19T22:55:02.526Z,22.30
2019-02-19T22:57:30.828Z,22.30
2019-02-19T22:59:59.152Z,22.20
2019-02-19T23:02:27.438Z,22.30
2019-02-19T23:04:55.723Z,22.20
2019-02-19T23:07:26.201Z,22.20
2019-02-19T23:09:54.862Z,22.20
2019-02-19T23:12:23.448Z,22.20
2019-02-19T23:14:52.027Z,22.20
2019-02-19T23:17:20.715Z,22.10
2019-02-19T23:19:49.303Z,22.10
2019-02-19T23:22:21.701Z,22.10
2019-02-19T23:24:47.738Z,22.10
2019-02-19T23:27:16.035Z,22.10
2019-02-19T23:29:44.343Z,22.10
2019-02-19T23:32:12.891Z,22.10
2019-02-19T23:34:41.190Z,22.10
2019-02-19T23:37:09.569Z,22.00
2019-02-19T23:39:43.545Z,22.10
2019-02-19T23:42:08.232Z,22.00
2019-02-19T23:44:36.721Z,22.00
2019-02-19T23:47:05.047Z,22.00
2019-02-19T23:49:33.734Z,22.00
2019-02-19T23:52:02.027Z,22.00
2019-02-19T23:54:30.327Z,22.00
2019-02-19T23:56:58.970Z,22.00
2019-02-19T23:59:28.002Z,22.00
